Time;durP1;ratioP1;P1;durP2;ratioP2;P2;SDS_P1;SDS_P2;PMS_P1;PMS_P2;Temp;Humidity;BMP_temperature;BMP_pressure;BME280_temperature;BME280_humidity;BME280_pressure;Samples;Min_cycle;Max_cycle;Signal;HPM_P1;HPM_P2
2024/02/14 00:24:38;;;;;;;;;;;;;;;;;;;;;
2024/02/14 00:28:55;;;;;;;;;;;;;;;;;;;;;
2024/02/14 00:33:22;;;;;;;;;;;;;;;;;;;;;
2024/02/14 00:42:27;;;;;;;;;;;;;;;;;;;;;
2024/02/14 00:46:34;;;;;;;;;;;;;;;;;;;;;
2024/02/14 01:20:08;;;;;;;115.90;60.90;;;;;;;1.76;100.00;100993.63;110648;1264;22042;-86
2024/02/14 01:24:32;;;;;;;73.20;47.00;;;;;;;1.60;100.00;100989.38;109753;1270;22012;-87
2024/02/14 01:28:49;;;;;;;67.50;46.90;;;;;;;1.44;100.00;100992.83;108660;1284;21986;-85
2024/02/14 01:48:58;;;;;;;;;;;;;;;;;;;;;
2024/02/14 02:06:37;;;;;;;;;;;;;;;;;;;;;
2024/02/14 02:10:47;;;;;;;;;;;;;;;;;;;;;
2024/02/14 02:36:45;;;;;;;;;;;;;;;;;;;;;
2024/02/14 02:46:18;;;;;;;;;;;;;;;;;;;;;
2024/02/14 02:51:35;;;;;;;62.70;45.10;;;;;;;0.97;100.00;100995.91;107928;1294;544429;-86
2024/02/14 02:55:46;;;;;;;;;;;;;;;;;;;;;
2024/02/14 03:00:28;;;;;;;;;;;;;;;;;;;;;
2024/02/14 03:09:59;;;;;;;;;;;;;;;;;;;;;
2024/02/14 03:34:33;;;;;;;;;;;;;;;;;;;;;
2024/02/14 03:43:05;;;;;;;;;;;;;;;;;;;;;
2024/02/14 03:58:25;;;;;;;;;;;;;;;;;;;;;
2024/02/14 04:13:23;;;;;;;;;;;;;;;;;;;;;
2024/02/14 04:27:06;;;;;;;;;;;;;;;;;;;;;
2024/02/14 04:44:48;;;;;;;54.90;47.00;;;;;;;1.74;100.00;101024.83;103024;1262;10169335;-87
2024/02/14 04:54:34;;;;;;;;;;;;;;;;;;;;;
2024/02/14 05:28:26;;;;;;;;;;;;;;;;;;;;;
2024/02/14 05:33:03;;;;;;;;;;;;;;;;;;;;;
2024/02/14 05:37:30;;;;;;;92.10;55.90;;;;;;;-0.03;100.00;101018.67;110832;1261;22002;-86
2024/02/14 05:43:02;;;;;;;;;;;;;;;;;;;;;
2024/02/14 05:58:26;;;;;;;;;;;;;;;;;;;;;
2024/02/14 06:04:00;;;;;;;;;;;;;;;;;;;;;
2024/02/14 06:29:59;;;;;;;;;;;;;;;;;;;;;
2024/02/14 06:34:11;;;;;;;;;;;;;;;;;;;;;
2024/02/14 06:38:33;;;;;;;81.00;58.30;;;;;;;0.39;100.00;101037.97;110880;1260;21999;-85
2024/02/14 06:53:53;;;;;;;69.80;53.50;;;;;;;0.42;100.00;101054.80;108027;1294;24058;-84
2024/02/14 07:02:29;;;;;;;74.40;54.20;;;;;;;0.82;100.00;101057.07;108683;1284;22409;-85
2024/02/14 07:07:05;;;;;;;;;;;;;;;;;;;;;
2024/02/14 07:10:59;;;;;;;81.40;60.70;;;;;;;0.82;100.00;101052.95;104302;1294;5391719;-85
2024/02/14 07:14:02;;;;;;;;;;;;;;;;;;;;;
2024/02/14 07:21:44;;;;;;;;;;;;;;;;;;;;;
2024/02/14 07:37:33;;;;;;;;;;;;;;;;;;;;;
2024/02/14 07:42:18;;;;;;;;;;;;;;;;;;;;;
2024/02/14 07:47:04;;;;;;;;;;;;;;;;;;;;;
2024/02/14 07:51:01;;;;;;;;;;;;;;;;;;;;;
2024/02/14 07:59:33;;;;;;;;;;;;;;;;;;;;;
2024/02/14 08:14:20;;;;;;;70.80;63.20;;;;;;;4.71;100.00;101026.58;110471;1259;548210;-86
2024/02/14 08:32:59;;;;;;;77.60;58.10;;;;;;;5.49;100.00;101020.23;109154;1278;23079;-85
2024/02/14 08:40:29;;;;;;;;;;;;;;;;;;;;;
2024/02/14 08:44:06;;;;;;;64.00;55.90;;;;;;;6.66;100.00;101018.60;108706;1281;23097;-85
2024/02/14 08:47:20;;;;;;;;;;;;;;;;;;;;;
2024/02/14 08:50:49;;;;;;;;;;;;;;;;;;;;;
2024/02/14 08:55:14;;;;;;;56.00;48.40;;;;;;;7.22;100.00;101027.09;107830;1291;548774;-87
2024/02/14 08:58:46;;;;;;;;;;;;;;;;;;;;;
2024/02/14 09:02:59;;;;;;;59.40;52.90;;;;;;;7.14;100.00;101017.85;108598;1285;22079;-82
2024/02/14 09:07:17;;;;;;;;;;;;;;;;;;;;;
2024/02/14 09:12:03;;;;;;;;;;;;;;;;;;;;;
2024/02/14 09:36:29;;;;;;;62.10;51.30;;;;;;;8.09;100.00;100992.66;102957;1262;21967;-80
2024/02/14 09:40:15;;;;;;;;;;;;;;;;;;;;;
2024/02/14 09:44:17;;;;;;;;;;;;;;;;;;;;;
2024/02/14 09:49:01;;;;;;;57.90;45.80;;;;;;;7.14;100.00;100988.25;108389;1287;22007;-82
2024/02/14 09:56:16;;;;;;;;;;;;;;;;;;;;;
2024/02/14 09:59:41;;;;;;;53.90;43.30;;;;;;;7.70;100.00;100981.21;108268;1285;21993;-83
2024/02/14 10:04:06;;;;;;;;;;;;;;;;;;;;;
2024/02/14 10:12:42;;;;;;;;;;;;;;;;;;;;;
2024/02/14 10:15:14;;;;;;;46.40;41.50;;;;;;;9.16;100.00;100980.74;108092;1287;22002;-82
2024/02/14 10:19:03;;;;;;;47.20;38.90;;;;;;;9.43;100.00;100980.14;108444;1290;22006;-82
2024/02/14 10:23:04;;;;;;;66.20;46.90;;;;;;;9.70;100.00;100978.48;108371;1288;22053;-82
2024/02/14 10:31:39;;;;;;;;;;;;;;;10.21;100.00;100967.99;105943;1316;21997;-82
2024/02/14 10:46:31;;;;;;;38.90;34.70;;;;;;;11.15;100.00;100951.21;106872;1306;22030;-83
2024/02/14 10:49:58;;;;;;;38.70;31.10;;;;;;;12.27;100.00;100943.91;102634;1316;4394056;-82
2024/02/14 10:53:52;;;;;;;31.90;28.50;;;;;;;13.07;100.00;100936.23;105374;1322;22072;-83
2024/02/14 11:17:42;;;;;;;31.50;23.10;;;;;;;15.59;95.20;100918.19;111001;1260;21994;-82
2024/02/14 11:22:07;;;;;;;43.30;35.50;;;;;;;15.03;99.38;100916.54;110683;1265;22748;-82
2024/02/14 11:36:57;;;;;;;18.60;15.30;;;;;;;15.10;90.90;100902.89;110892;1256;547767;-83
2024/02/14 11:46:16;;;;;;;16.20;13.90;;;;;;;11.73;99.26;100892.54;108957;1279;22270;-83
2024/02/14 11:50:45;;;;;;;19.30;17.00;;;;;;;11.10;100.00;100885.89;108837;1279;23761;-83
2024/02/14 11:55:04;;;;;;;;;;;;;;;;;;;;;
2024/02/14 12:20:18;;;;;;;21.20;14.70;;;;;;;10.31;100.00;100859.16;111559;1257;22365;-84
2024/02/14 12:30:25;;;;;;;;;;;;;;;;;;;;;
2024/02/14 12:38:12;;;;;;;;;;;;;;;;;;;;;
2024/02/14 12:53:08;;;;;;;19.30;15.10;;;;;;;11.05;100.00;100837.70;110972;1257;547699;-84
2024/02/14 12:57:07;;;;;;;;;;;;;;;10.69;100.00;100832.11;111929;1243;22026;-85
2024/02/14 13:01:38;;;;;;;15.40;9.80;;;;;;;10.06;100.00;100835.86;112594;1243;24260;-85
2024/02/14 13:05:11;;;;;;;16.40;10.30;;;;;;;9.70;100.00;100833.88;111871;1241;22006;-84
2024/02/14 13:09:01;;;;;;;19.50;12.30;;;;;;;9.50;100.00;100820.83;111614;1250;21952;-84
2024/02/14 13:16:26;;;;;;;;;;;;;;;;;;;;;
2024/02/14 13:19:59;;;;;;;15.40;9.20;;;;;;;9.70;100.00;100823.10;109036;1279;23813;-85
2024/02/14 13:23:02;;;;;;;;;;;;;;;9.65;100.00;100824.98;108581;1286;22009;-83
2024/02/14 13:26:00;;;;;;;20.80;14.00;;;;;;;9.55;100.00;100824.71;108316;1290;24976;-86
2024/02/14 13:28:58;;;;;;;20.60;11.00;;;;;;;9.54;100.00;100809.98;107932;1290;22088;-84
2024/02/14 13:47:43;;;;;;;;;;;;;;;;;;;;;
2024/02/14 13:52:22;;;;;;;;;;;;;;;;;;;;;
2024/02/14 14:01:38;;;;;;;21.00;14.90;;;;;;;9.76;100.00;100811.27;110775;1263;23038;-85
2024/02/14 14:10:04;;;;;;;26.70;20.00;;;;;;;9.75;100.00;100813.77;107652;1297;550632;-84
2024/02/14 14:25:58;;;;;;;23.60;16.80;;;;;;;9.10;100.00;100799.80;102268;1313;22171;-85
2024/02/14 14:34:32;;;;;;;23.70;16.80;;;;;;;8.86;100.00;100785.80;105945;1316;23660;-84
2024/02/14 14:50:25;;;;;;;;;;;;;;;;;;;;;
2024/02/14 14:54:37;;;;;;;32.40;23.50;;;;;;;8.78;100.00;100787.02;103342;1298;24531;-87
2024/02/14 14:59:24;;;;;;;;;;;;;;;;;;;;;
2024/02/14 15:03:55;;;;;;;24.20;18.30;;;;;;;8.69;100.00;100789.64;106968;1301;22068;-87
2024/02/14 15:19:11;;;;;;;;;;;;;;;;;;;;;
2024/02/14 15:28:40;;;;;;;35.80;23.00;;;;;;;9.01;100.00;100797.05;109543;1274;22191;-86
2024/02/14 15:52:27;;;;;;;41.10;33.50;;;;;;;9.96;100.00;100813.02;110925;1251;547820;-85
2024/02/14 16:06:34;;;;;;;36.50;30.80;;;;;;;8.89;100.00;100815.92;109434;1276;22211;-85
2024/02/14 16:24:37;;;;;;;44.00;31.50;;;;;;;9.92;100.00;100824.24;108580;1280;548135;-86
2024/02/14 16:27:22;;;;;;;42.80;33.40;;;;;;;10.07;100.00;100824.52;107799;1266;3227672;-86
2024/02/14 16:30:12;;;;;;;50.00;39.40;;;;;;;9.51;100.00;100821.18;109822;1273;23761;-87
2024/02/14 16:33:06;;;;;;;44.60;35.60;;;;;;;9.30;100.00;100834.38;109839;1272;21998;-87
2024/02/14 16:35:40;;;;;;;43.90;33.40;;;;;;;9.09;100.00;100837.49;109836;1272;21997;-86
2024/02/14 16:38:18;;;;;;;55.40;39.50;;;;;;;8.93;100.00;100837.52;110314;1273;22740;-87
2024/02/14 16:40:53;;;;;;;52.60;37.10;;;;;;;8.82;100.00;100838.28;109376;1279;24331;-84
2024/02/14 16:43:50;;;;;;;43.10;32.50;;;;;;;8.71;100.00;100841.66;109449;1279;22014;-85
2024/02/14 16:46:33;;;;;;;53.60;39.00;;;;;;;8.62;100.00;100841.67;109398;1275;21934;-84
2024/02/14 16:49:13;;;;;;;47.20;31.60;;;;;;;8.59;100.00;100848.00;109644;1272;22449;-86
2024/02/14 16:51:51;;;;;;;49.00;32.20;;;;;;;8.54;100.00;100848.94;109670;1272;21983;-87
2024/02/14 16:54:31;;;;;;;46.50;34.10;;;;;;;8.50;100.00;100847.84;109820;1272;22282;-86
2024/02/14 16:57:15;;;;;;;40.70;30.80;;;;;;;8.44;100.00;100849.17;109444;1276;21991;-86
2024/02/14 17:00:13;;;;;;;49.10;38.40;;;;;;;8.37;100.00;100849.13;109444;1276;22013;-86
2024/02/14 17:02:52;;;;;;;72.80;58.00;;;;;;;8.28;100.00;100854.34;109346;1279;22031;-86
2024/02/14 17:05:35;;;;;;;55.70;46.80;;;;;;;8.21;100.00;100856.73;109238;1279;22167;-87
2024/02/14 17:08:13;;;;;;;67.90;52.10;;;;;;;8.14;100.00;100854.27;109364;1276;21981;-86
2024/02/14 17:11:03;;;;;;;55.50;45.50;;;;;;;8.06;100.00;100856.16;108950;1280;21998;-86
2024/02/14 17:13:38;;;;;;;43.30;35.40;;;;;;;8.00;100.00;100856.78;109033;1281;22192;-87
2024/02/14 17:16:12;;;;;;;36.60;28.80;;;;;;;7.97;100.00;100856.84;109209;1278;21994;-86
2024/02/14 17:18:49;;;;;;;43.40;34.00;;;;;;;7.94;100.00;100855.51;109446;1276;21997;-86
2024/02/14 17:21:42;;;;;;;45.70;33.80;;;;;;;7.89;100.00;100852.83;110949;1253;22277;-86
2024/02/14 17:24:38;;;;;;;40.90;32.00;;;;;;;7.76;100.00;100841.65;110515;1272;21990;-85
2024/02/14 17:27:32;;;;;;;41.60;31.40;;;;;;;7.75;100.00;100843.23;110337;1275;22014;-86
2024/02/14 17:30:35;;;;;;;38.80;27.70;;;;;;;7.79;100.00;100858.55;109763;1273;22012;-86
2024/02/14 17:33:22;;;;;;;84.80;60.60;;;;;;;7.76;100.00;100858.79;109473;1273;21982;-85
2024/02/14 17:36:11;;;;;;;62.30;47.30;;;;;;;7.71;100.00;100861.48;109568;1273;23341;-87
2024/02/14 17:39:05;;;;;;;46.40;38.50;;;;;;;7.67;100.00;100860.52;108959;1281;21969;-86
2024/02/14 17:41:45;;;;;;;48.00;37.60;;;;;;;7.64;100.00;100863.33;109002;1281;22056;-86
2024/02/14 17:44:23;;;;;;;54.40;41.90;;;;;;;7.62;100.00;100864.06;108980;1276;22787;-86
2024/02/14 17:47:04;;;;;;;54.90;43.70;;;;;;;7.61;100.00;100863.90;109629;1275;23120;-86
2024/02/14 17:50:03;;;;;;;49.30;39.90;;;;;;;7.58;100.00;100870.36;109548;1275;22474;-86
2024/02/14 17:52:48;;;;;;;49.70;39.60;;;;;;;7.55;100.00;100871.63;109422;1275;21981;-86
2024/02/14 17:55:33;;;;;;;59.50;43.70;;;;;;;7.55;100.00;100866.95;109282;1278;22001;-85
2024/02/14 17:58:14;;;;;;;108.10;73.90;;;;;;;7.55;100.00;100868.52;109782;1269;23051;-87
2024/02/14 18:00:51;;;;;;;109.40;82.20;;;;;;;7.54;100.00;100871.13;110389;1269;22004;-86
2024/02/14 18:03:33;;;;;;;93.40;69.90;;;;;;;7.51;100.00;100869.44;110337;1269;22015;-86
2024/02/14 18:06:04;;;;;;;60.60;42.30;;;;;;;7.46;100.00;100870.39;109372;1274;22776;-86
2024/02/14 18:09:00;;;;;;;60.40;45.50;;;;;;;7.38;100.00;100870.00;109406;1274;22327;-86
2024/02/14 18:11:55;;;;;;;63.50;46.10;;;;;;;7.29;100.00;100870.66;109858;1271;22006;-86
2024/02/14 18:14:53;;;;;;;;;;;;;;;7.21;100.00;100868.02;109876;1271;23023;-86
2024/02/14 18:17:52;;;;;;;91.90;61.50;;;;;;;7.08;100.00;100865.27;109887;1271;22449;-85
2024/02/14 18:20:45;;;;;;;73.50;51.60;;;;;;;7.04;100.00;100864.30;110105;1265;22740;-86
2024/02/14 18:23:57;;;;;;;70.20;49.60;;;;;;;7.00;100.00;100858.64;110169;1265;22310;-86
2024/02/14 18:26:44;;;;;;;67.80;48.10;;;;;;;7.08;100.00;100864.94;110700;1264;22005;-86
2024/02/14 18:29:43;;;;;;;65.70;47.80;;;;;;;7.08;100.00;100862.67;110703;1263;21999;-86
2024/02/14 18:32:15;;;;;;;72.10;50.00;;;;;;;7.09;100.00;100860.42;110470;1264;22177;-86
2024/02/14 18:34:53;;;;;;;75.10;50.40;;;;;;;7.08;100.00;100861.48;110705;1264;22076;-86
2024/02/14 18:37:27;;;;;;;72.60;51.10;;;;;;;7.07;100.00;100860.80;110527;1264;22002;-86
2024/02/14 18:40:11;;;;;;;73.40;52.50;;;;;;;7.05;100.00;100861.34;110869;1260;21961;-85
2024/02/14 18:43:01;;;;;;;74.00;51.60;;;;;;;7.06;100.00;100863.76;110692;1264;22434;-85
2024/02/14 18:45:45;;;;;;;;;;;;;;;;;;;;;
2024/02/14 18:48:38;;;;;;;69.70;50.20;;;;;;;7.02;100.00;100851.35;109441;1274;22182;-88
2024/02/14 18:51:28;;;;;;;72.80;51.70;;;;;;;7.04;100.00;100848.05;108877;1279;23046;-84
2024/02/14 18:54:25;;;;;;;76.90;53.70;;;;;;;7.11;100.00;100861.61;109140;1275;22417;-88
2024/02/14 18:57:08;;;;;;;68.90;50.80;;;;;;;7.15;100.00;100863.95;109455;1275;22206;-88
2024/02/14 18:59:42;;;;;;;73.30;56.80;;;;;;;7.18;100.00;100864.96;109106;1281;22018;-85
2024/02/14 19:02:14;;;;;;;103.60;77.40;;;;;;;7.19;100.00;100863.73;108766;1286;22017;-86
2024/02/14 19:04:49;;;;;;;75.70;58.10;;;;;;;7.19;100.00;100867.72;108889;1282;23729;-85
2024/02/14 19:07:20;;;;;;;67.40;48.60;;;;;;;7.21;100.00;100869.41;109208;1264;21996;-86
2024/02/14 19:09:51;;;;;;;72.50;51.40;;;;;;;7.24;100.00;100872.98;109669;1270;22014;-86
2024/02/14 19:12:24;;;;;;;66.70;49.00;;;;;;;7.26;100.00;100872.78;109726;1270;21999;-86
2024/02/14 19:14:55;;;;;;;68.80;49.80;;;;;;;7.30;100.00;100870.31;109682;1270;21986;-86
2024/02/14 19:17:25;;;;;;;66.50;49.40;;;;;;;7.35;100.00;100869.37;109333;1272;22010;-87
2024/02/14 19:19:55;;;;;;;63.90;47.50;;;;;;;7.37;100.00;100868.63;109584;1268;22013;-85
2024/02/14 19:22:32;;;;;;;82.80;67.60;;;;;;;7.39;100.00;100870.66;109148;1277;21990;-85
2024/02/14 19:25:17;;;;;;;64.20;53.00;;;;;;;7.39;100.00;100868.08;108820;1282;23478;-85
2024/02/14 19:27:51;;;;;;;64.40;49.60;;;;;;;7.38;100.00;100867.57;109118;1276;21996;-86
2024/02/14 19:30:30;;;;;;;59.50;45.10;;;;;;;7.40;100.00;100867.03;109097;1280;22014;-86
2024/02/14 19:33:08;;;;;;;64.60;47.10;;;;;;;7.40;100.00;100866.17;108932;1280;22340;-86
2024/02/14 19:35:41;;;;;;;65.40;48.30;;;;;;;7.40;100.00;100862.18;108812;1280;22135;-86
2024/02/14 19:38:23;;;;;;;60.30;46.40;;;;;;;7.40;100.00;100861.84;108887;1280;22015;-86
2024/02/14 19:41:10;;;;;;;71.60;51.10;;;;;;;7.36;100.00;100858.95;108966;1280;23748;-85
2024/02/14 19:43:49;;;;;;;56.20;47.30;;;;;;;7.36;100.00;100854.97;109583;1268;21995;-86
2024/02/14 19:46:26;;;;;;;61.30;48.50;;;;;;;7.39;100.00;100853.02;109867;1265;22751;-86
2024/02/14 19:49:00;;;;;;;59.00;47.20;;;;;;;7.39;100.00;100853.89;110734;1260;24378;-86
2024/02/14 19:51:37;;;;;;;122.00;103.00;;;;;;;7.34;100.00;100843.39;111012;1260;21972;-86
2024/02/14 19:54:17;;;;;;;61.30;46.90;;;;;;;7.44;100.00;100856.39;110961;1254;21999;-85
2024/02/14 19:56:53;;;;;;;55.30;45.10;;;;;;;7.45;100.00;100858.98;110917;1260;23683;-84
2024/02/14 19:59:27;;;;;;;56.50;44.10;;;;;;;7.36;100.00;100850.14;110933;1260;22348;-86
2024/02/14 20:01:59;;;;;;;57.40;47.30;;;;;;;7.47;100.00;100862.95;110286;1265;21996;-86
2024/02/14 20:04:31;;;;;;;56.00;42.00;;;;;;;7.52;100.00;100858.02;110425;1265;22119;-85
2024/02/14 20:07:08;;;;;;;;;;;;;;;7.54;100.00;100858.16;110450;1265;23612;-85
2024/02/14 20:09:42;;;;;;;61.30;44.80;;;;;;;7.43;100.00;100859.19;110380;1265;22049;-86
2024/02/14 20:12:13;;;;;;;64.30;46.80;;;;;;;7.44;100.00;100858.84;109668;1269;21998;-86
2024/02/14 20:14:45;;;;;;;;;;;;;;;7.45;100.00;100856.73;109387;1273;23038;-85
2024/02/14 20:17:19;;;;;;;60.40;44.80;;;;;;;7.40;100.00;100858.89;109578;1273;22004;-85
2024/02/14 20:19:55;;;;;;;59.90;44.10;;;;;;;7.44;100.00;100857.10;109595;1269;21964;-85
2024/02/14 20:22:29;;;;;;;56.90;43.70;;;;;;;7.49;100.00;100854.93;109698;1276;22019;-85
2024/02/14 20:25:08;;;;;;;58.30;44.30;;;;;;;7.55;100.00;100859.33;109526;1276;22022;-86
2024/02/14 20:27:40;;;;;;;56.90;44.80;;;;;;;7.56;100.00;100856.39;109670;1276;22954;-86
2024/02/14 20:30:15;;;;;;;;;;;;;;;7.57;100.00;100857.73;109442;1275;22013;-86
2024/02/14 20:32:51;;;;;;;66.30;46.30;;;;;;;7.47;100.00;100855.14;109297;1278;22014;-86
2024/02/14 20:35:23;;;;;;;59.50;42.60;;;;;;;7.40;100.00;100856.96;109286;1277;22022;-86
2024/02/14 20:37:53;;;;;;;60.20;45.40;;;;;;;7.40;100.00;100859.23;109155;1271;22488;-86
2024/02/14 20:40:25;;;;;;;66.90;50.20;;;;;;;7.41;100.00;100858.70;109770;1271;22994;-86
2024/02/14 20:42:56;;;;;;;63.70;50.20;;;;;;;7.41;100.00;100861.65;109722;1271;22868;-86
2024/02/14 20:45:28;;;;;;;66.30;49.30;;;;;;;7.42;100.00;100863.02;109735;1271;22009;-86
2024/02/14 20:48:02;;;;;;;60.70;47.40;;;;;;;7.46;100.00;100863.13;109694;1271;23042;-86
2024/02/14 20:50:36;;;;;;;72.20;49.90;;;;;;;7.36;100.00;100844.24;109637;1271;22126;-86
2024/02/14 20:53:14;;;;;;;68.30;48.60;;;;;;;7.44;100.00;100857.61;110336;1271;21974;-85
2024/02/14 20:55:49;;;;;;;60.40;45.20;;;;;;;7.43;100.00;100860.91;111637;1266;21984;-86
2024/02/14 20:58:25;;;;;;;61.00;45.00;;;;;;;7.48;100.00;100861.70;111430;1260;21970;-86
2024/02/14 21:01:29;;;;;;;60.30;45.10;;;;;;;7.52;100.00;100860.95;111968;1260;21986;-86
2024/02/14 21:03:59;;;;;;;76.70;50.30;;;;;;;7.55;100.00;100860.54;110918;1260;23053;-86
2024/02/14 21:06:30;;;;;;;77.20;49.30;;;;;;;7.58;100.00;100858.25;110866;1264;21989;-85
2024/02/14 21:09:02;;;;;;;70.30;49.90;;;;;;;7.57;100.00;100856.88;111002;1264;24296;-86
2024/02/14 21:11:40;;;;;;;71.30;52.60;;;;;;;7.56;100.00;100852.73;111837;1264;21993;-86
2024/02/14 21:15:28;;;;;;;75.40;52.90;;;;;;;7.55;100.00;100855.17;110759;1268;21756;-86
2024/02/14 21:18:07;;;;;;;95.50;70.00;;;;;;;7.55;100.00;100851.89;110197;1276;22000;-85
2024/02/14 21:20:48;;;;;;;136.00;93.60;;;;;;;7.62;100.00;100849.51;109475;1276;22484;-86
2024/02/14 21:23:21;;;;;;;123.80;86.90;;;;;;;7.70;100.00;100851.12;109466;1276;22653;-86
2024/02/14 21:25:57;;;;;;;105.70;77.40;;;;;;;7.74;100.00;100853.13;109553;1276;22008;-86
2024/02/14 21:28:27;;;;;;;98.20;75.20;;;;;;;7.77;100.00;100855.13;109571;1277;23692;-86
2024/02/14 21:31:04;;;;;;;108.00;71.80;;;;;;;7.75;100.00;100843.90;109531;1276;23644;-87
2024/02/14 21:33:48;;;;;;;106.70;66.20;;;;;;;7.82;100.00;100853.98;109597;1276;22767;-85
2024/02/14 21:36:46;;;;;;;80.00;53.80;;;;;;;7.80;100.00;100857.67;109491;1276;21981;-85
2024/02/14 21:39:23;;;;;;;112.00;64.20;;;;;;;7.80;100.00;100857.85;109838;1275;21985;-85
2024/02/14 21:41:56;;;;;;;77.30;51.60;;;;;;;7.71;100.00;100844.86;109489;1275;22414;-85
2024/02/14 21:44:36;;;;;;;82.60;54.60;;;;;;;7.82;100.00;100859.39;110277;1270;21994;-86
2024/02/14 21:47:17;;;;;;;86.60;53.50;;;;;;;7.81;100.00;100862.68;110129;1269;22044;-84
2024/02/14 21:49:47;;;;;;;67.70;45.50;;;;;;;7.81;100.00;100860.42;110734;1262;22461;-85
2024/02/14 21:52:22;;;;;;;76.10;51.00;;;;;;;7.78;100.00;100863.43;110994;1262;22016;-85
2024/02/14 21:54:55;;;;;;;71.50;49.40;;;;;;;7.75;100.00;100861.40;111220;1262;21971;-85
2024/02/14 21:57:26;;;;;;;65.10;44.50;;;;;;;7.72;100.00;100861.64;111584;1244;22009;-86
2024/02/14 21:59:56;;;;;;;71.10;48.50;;;;;;;7.66;100.00;100855.51;111033;1261;22045;-86
2024/02/14 22:02:27;;;;;;;67.10;46.10;;;;;;;7.65;100.00;100859.16;110962;1261;23025;-85
2024/02/14 22:05:04;;;;;;;68.80;51.10;;;;;;;7.63;100.00;100857.30;110723;1264;21997;-86
2024/02/14 22:07:36;;;;;;;77.20;61.20;;;;;;;7.61;100.00;100859.59;110152;1270;23837;-85
2024/02/14 22:10:07;;;;;;;62.30;43.50;;;;;;;7.56;100.00;100856.71;110060;1270;21845;-86
2024/02/14 22:12:54;;;;;;;65.20;46.20;;;;;;;7.49;100.00;100855.62;110317;1270;22069;-85
2024/02/14 22:15:50;;;;;;;58.70;43.00;;;;;;;7.44;100.00;100854.86;110362;1271;21875;-85
2024/02/14 22:19:06;;;;;;;74.60;46.50;;;;;;;7.39;100.00;100856.33;110934;1271;21920;-86
2024/02/14 22:22:22;;;;;;;71.70;48.50;;;;;;;7.38;100.00;100855.29;109812;1268;21874;-86
2024/02/14 22:24:58;;;;;;;66.40;44.40;;;;;;;7.40;100.00;100851.80;109467;1274;22008;-87
2024/02/14 22:27:57;;;;;;;102.40;57.00;;;;;;;7.42;100.00;100844.66;109669;1273;21981;-86
2024/02/14 22:30:37;;;;;;;68.70;44.90;;;;;;;7.33;100.00;100826.80;109413;1277;21998;-85
2024/02/14 22:33:19;;;;;;;80.40;51.70;;;;;;;7.40;100.00;100840.02;109359;1277;22394;-85
2024/02/14 22:35:57;;;;;;;66.20;48.40;;;;;;;7.37;100.00;100845.42;109297;1277;23615;-86
2024/02/14 22:38:38;;;;;;;64.90;43.60;;;;;;;7.36;100.00;100843.20;108938;1281;22001;-86
2024/02/14 22:41:10;;;;;;;77.90;53.50;;;;;;;7.37;100.00;100845.60;109506;1278;23622;-84
2024/02/14 22:43:40;;;;;;;74.40;52.80;;;;;;;7.41;100.00;100846.56;109050;1278;22574;-85
2024/02/14 22:46:12;;;;;;;78.80;52.00;;;;;;;7.45;100.00;100849.46;109224;1275;21995;-84
2024/02/14 22:48:45;;;;;;;80.50;53.70;;;;;;;7.50;100.00;100847.98;109496;1270;22003;-84
2024/02/14 22:51:16;;;;;;;74.70;47.60;;;;;;;7.54;100.00;100844.98;109543;1270;22035;-84
2024/02/14 22:53:47;;;;;;;66.20;46.70;;;;;;;7.57;100.00;100845.78;109135;1275;23741;-84
2024/02/14 22:56:17;;;;;;;68.30;46.40;;;;;;;7.58;100.00;100847.85;109581;1266;22184;-83
2024/02/14 22:58:47;;;;;;;63.50;44.20;;;;;;;7.60;100.00;100847.29;110220;1266;23189;-84
2024/02/14 23:01:17;;;;;;;67.40;46.30;;;;;;;7.65;100.00;100848.08;110237;1266;22956;-84
2024/02/14 23:03:49;;;;;;;76.90;50.30;;;;;;;7.66;100.00;100848.92;110230;1266;23855;-84
2024/02/14 23:06:19;;;;;;;101.30;66.80;;;;;;;7.68;100.00;100852.87;109795;1266;22152;-84
2024/02/14 23:08:49;;;;;;;143.70;103.40;;;;;;;7.70;100.00;100857.34;110324;1266;21958;-82
2024/02/14 23:11:26;;;;;;;108.20;79.10;;;;;;;7.71;100.00;100861.13;110337;1266;22040;-84
2024/02/14 23:14:12;;;;;;;116.70;90.90;;;;;;;7.74;100.00;100864.38;110008;1266;22034;-84
2024/02/14 23:16:56;;;;;;;122.40;81.90;;;;;;;7.77;100.00;100865.36;110405;1266;22585;-84
2024/02/14 23:19:33;;;;;;;133.40;77.30;;;;;;;7.81;100.00;100868.05;110417;1261;23044;-85
2024/02/14 23:22:22;;;;;;;82.60;51.50;;;;;;;7.85;100.00;100874.05;110743;1261;21986;-85
2024/02/14 23:25:20;;;;;;;63.60;42.80;;;;;;;7.86;100.00;100874.20;110492;1261;23045;-84
2024/02/14 23:28:00;;;;;;;63.90;40.50;;;;;;;7.83;100.00;100875.30;110763;1261;22223;-84
2024/02/14 23:30:53;;;;;;;47.50;34.30;;;;;;;7.82;100.00;100875.48;110793;1261;23824;-85
2024/02/14 23:33:29;;;;;;;45.00;35.00;;;;;;;7.83;100.00;100876.17;110702;1261;22162;-85
2024/02/14 23:36:11;;;;;;;44.40;34.80;;;;;;;7.84;100.00;100877.03;110585;1261;22008;-85
2024/02/14 23:38:49;;;;;;;44.70;34.00;;;;;;;7.86;100.00;100884.60;110686;1263;21987;-84
2024/02/14 23:41:20;;;;;;;46.50;34.80;;;;;;;7.89;100.00;100886.80;110647;1263;21966;-85
2024/02/14 23:43:56;;;;;;;42.10;32.30;;;;;;;7.94;100.00;100885.49;109706;1268;22219;-84
2024/02/14 23:46:35;;;;;;;40.20;31.30;;;;;;;7.97;100.00;100888.56;109845;1268;21957;-84
2024/02/14 23:49:09;;;;;;;35.20;28.90;;;;;;;7.99;100.00;100889.05;110080;1268;22238;-84
2024/02/14 23:51:47;;;;;;;34.50;28.10;;;;;;;8.05;100.00;100889.27;109921;1268;22358;-84
2024/02/14 23:54:20;;;;;;;29.80;26.40;;;;;;;8.07;100.00;100887.67;109387;1273;22089;-85
2024/02/14 23:56:54;;;;;;;32.80;25.40;;;;;;;8.12;100.00;100888.29;109595;1270;21999;-84
2024/02/14 23:59:26;;;;;;;29.30;23.80;;;;;;;8.14;100.00;100888.24;109666;1270;22987;-84
